PWSweather.com
Personal Weather Stations
Station Observations
UWIDEPER1
Brown County, Depere, WI 54115

Brown CountyDepere, WI 54115

Lat: 44.44, Lon: -88.05

Elevation: 610

Station Type: Acurite 5in1

Latest ConditionsUpdated 7:15:01 AM CDT Thursday, Jun 29, 2017
Currently Today's Max Today's Min Today's Average
Temperature 68.4°F20.2°C 68.4°F20.2°C 65.7°F18.7°C 66.5°F19.2°C
Dew Point 65.6°F18.7°C 65.6°F18.7°C 62.0°F16.7°C 63.7°F17.6°C
Winds 2.3 mph S3.7 kmh S 5.8 mph SSW9.3 kmh SSW - 3.6 mph 5.8 kmh
Wind Gusts 3.5 mph5.6 kmh 11.5 mph18.5 kmh - -
Humidity 91% 91% 88% 91%
Pressure 29.57 in1001.4 mb 29.59 in1002.0 mb 29.54 in1000.3 mb -
Hour Temp Dew Point Humidity Winds Wind Gusts Pressure Precip Precip Rate Daily Precip Total
07:15 AM 68.4°F20.2°C 65.6°F18.7°C 91% 2.3 mph S3.7 kmh S 3.5 mph5.6 kmh 29.57 in1001.4 mb - 0.00 in0.0 mm 0.00 in0.0 mm
07:10 AM 68.1°F20.1°C 65.4°F18.6°C 91% 3.5 mph S5.6 kmh S 3.5 mph5.6 kmh 29.58 in1001.7 mb - 0.00 in0.0 mm 0.00 in0.0 mm
07:00 AM 67.8°F19.9°C 65.1°F18.4°C 91% 3.5 mph SW5.6 kmh SW 4.6 mph7.4 kmh 29.58 in1001.7 mb - 0.00 in0.0 mm 0.00 in0.0 mm
06:55 AM 67.6°F19.8°C 64.9°F18.3°C 91% 2.3 mph S3.7 kmh S 3.5 mph5.6 kmh 29.58 in1001.7 mb - 0.00 in0.0 mm 0.00 in0.0 mm
06:50 AM 67.3°F19.6°C 64.6°F18.1°C 91% 3.5 mph WSW5.6 kmh WSW 2.3 mph3.7 kmh 29.57 in1001.4 mb - 0.00 in0.0 mm 0.00 in0.0 mm
06:45 AM 67.3°F19.6°C 64.6°F18.1°C 91% 2.3 mph SSE3.7 kmh SSE 3.5 mph5.6 kmh 29.57 in1001.4 mb - 0.00 in0.0 mm 0.00 in0.0 mm
06:40 AM 67.3°F19.6°C 64.6°F18.1°C 91% 3.5 mph S5.6 kmh S 3.5 mph5.6 kmh 29.58 in1001.7 mb - 0.00 in0.0 mm 0.00 in0.0 mm
06:35 AM 67.2°F19.6°C 64.5°F18.1°C 91% 2.3 mph S3.7 kmh S 5.8 mph9.3 kmh 29.58 in1001.7 mb - 0.00 in0.0 mm 0.00 in0.0 mm
06:30 AM 67.1°F19.5°C 64.4°F18.0°C 91% 2.3 mph S3.7 kmh S 3.5 mph5.6 kmh 29.58 in1001.7 mb - 0.00 in0.0 mm 0.00 in0.0 mm
06:25 AM 66.9°F19.4°C 64.2°F17.9°C 91% 3.5 mph SSW5.6 kmh SSW 3.5 mph5.6 kmh 29.58 in1001.7 mb - 0.00 in0.0 mm 0.00 in0.0 mm
06:20 AM 66.9°F19.4°C 64.2°F17.9°C 91% 4.6 mph SSW7.4 kmh SSW 3.5 mph5.6 kmh 29.58 in1001.7 mb - 0.00 in0.0 mm 0.00 in0.0 mm
06:15 AM 66.6°F19.2°C 63.9°F17.7°C 91% 3.5 mph SSW5.6 kmh SSW 5.8 mph9.3 kmh 29.58 in1001.7 mb - 0.00 in0.0 mm 0.00 in0.0 mm
06:10 AM 66.6°F19.2°C 63.9°F17.7°C 91% 3.5 mph SSE5.6 kmh SSE 3.5 mph5.6 kmh 29.58 in1001.7 mb - 0.00 in0.0 mm 0.00 in0.0 mm
06:00 AM 66.6°F19.2°C 63.9°F17.7°C 91% 3.5 mph SSW5.6 kmh SSW 4.6 mph7.4 kmh 29.58 in1001.7 mb - 0.00 in0.0 mm 0.00 in0.0 mm
05:55 AM 66.6°F19.2°C 63.9°F17.7°C 91% 4.6 mph SE7.4 kmh SE 6.9 mph11.1 kmh 29.58 in1001.7 mb - 0.00 in0.0 mm 0.00 in0.0 mm
05:50 AM 66.6°F19.2°C 63.9°F17.7°C 91% 3.5 mph S5.6 kmh S 3.5 mph5.6 kmh 29.58 in1001.7 mb - 0.00 in0.0 mm 0.00 in0.0 mm
05:45 AM 66.6°F19.2°C 63.9°F17.7°C 91% 2.3 mph SE3.7 kmh SE 3.5 mph5.6 kmh 29.58 in1001.7 mb - 0.00 in0.0 mm 0.00 in0.0 mm
05:40 AM 66.6°F19.2°C 63.9°F17.7°C 91% 4.6 mph SSE7.4 kmh SSE 5.8 mph9.3 kmh 29.58 in1001.7 mb - 0.00 in0.0 mm 0.00 in0.0 mm
05:35 AM 66.9°F19.4°C 64.2°F17.9°C 91% 3.5 mph SSE5.6 kmh SSE 5.8 mph9.3 kmh 29.57 in1001.4 mb - 0.00 in0.0 mm 0.00 in0.0 mm
05:30 AM 67.1°F19.5°C 64.4°F18.0°C 91% 4.6 mph S7.4 kmh S 10.4 mph16.7 kmh 29.57 in1001.4 mb - 0.00 in0.0 mm 0.00 in0.0 mm
05:25 AM 67.1°F19.5°C 64.4°F18.0°C 91% 5.8 mph SW9.3 kmh SW 10.4 mph16.7 kmh 29.57 in1001.4 mb - 0.00 in0.0 mm 0.00 in0.0 mm
05:20 AM 66.9°F19.4°C 64.2°F17.9°C 91% 4.6 mph SW7.4 kmh SW 6.9 mph11.1 kmh 29.58 in1001.7 mb - 0.00 in0.0 mm 0.00 in0.0 mm
05:15 AM 66.9°F19.4°C 64.2°F17.9°C 91% 4.6 mph S7.4 kmh S 3.5 mph5.6 kmh 29.57 in1001.4 mb - 0.00 in0.0 mm 0.00 in0.0 mm
05:10 AM 66.6°F19.2°C 63.9°F17.7°C 91% 3.5 mph S5.6 kmh S 3.5 mph5.6 kmh 29.57 in1001.4 mb - 0.00 in0.0 mm 0.00 in0.0 mm
05:00 AM 66.6°F19.2°C 63.9°F17.7°C 91% 3.5 mph S5.6 kmh S 3.5 mph5.6 kmh 29.57 in1001.4 mb - 0.00 in0.0 mm 0.00 in0.0 mm
04:55 AM 66.6°F19.2°C 63.9°F17.7°C 91% 3.5 mph SSE5.6 kmh SSE 3.5 mph5.6 kmh 29.57 in1001.4 mb - 0.00 in0.0 mm 0.00 in0.0 mm
04:50 AM 66.6°F19.2°C 63.9°F17.7°C 91% 3.5 mph S5.6 kmh S 5.8 mph9.3 kmh 29.57 in1001.4 mb - 0.00 in0.0 mm 0.00 in0.0 mm
04:45 AM 66.6°F19.2°C 63.9°F17.7°C 91% 3.5 mph WSW5.6 kmh WSW 5.8 mph9.3 kmh 29.57 in1001.4 mb - 0.00 in0.0 mm 0.00 in0.0 mm
04:40 AM 66.6°F19.2°C 63.9°F17.7°C 91% 5.8 mph SSE9.3 kmh SSE 5.8 mph9.3 kmh 29.57 in1001.4 mb - 0.00 in0.0 mm 0.00 in0.0 mm
04:35 AM 66.6°F19.2°C 63.9°F17.7°C 91% 4.6 mph SSW7.4 kmh SSW 11.5 mph18.5 kmh 29.57 in1001.4 mb - 0.00 in0.0 mm 0.00 in0.0 mm
04:30 AM 66.6°F19.2°C 63.9°F17.7°C 91% 3.5 mph SW5.6 kmh SW 4.6 mph7.4 kmh 29.57 in1001.4 mb - 0.00 in0.0 mm 0.00 in0.0 mm
04:25 AM 66.6°F19.2°C 63.9°F17.7°C 91% 3.5 mph SSE5.6 kmh SSE 5.8 mph9.3 kmh 29.57 in1001.4 mb - 0.00 in0.0 mm 0.00 in0.0 mm
04:20 AM 66.6°F19.2°C 63.9°F17.7°C 91% 3.5 mph SSE5.6 kmh SSE 6.9 mph11.1 kmh 29.57 in1001.4 mb - 0.00 in0.0 mm 0.00 in0.0 mm
04:15 AM 66.6°F19.2°C 63.9°F17.7°C 91% 4.6 mph S7.4 kmh S 3.5 mph5.6 kmh 29.56 in1001.0 mb - 0.00 in0.0 mm 0.00 in0.0 mm
04:10 AM 66.6°F19.2°C 63.9°F17.7°C 91% 3.5 mph S5.6 kmh S 6.9 mph11.1 kmh 29.56 in1001.0 mb - 0.00 in0.0 mm 0.00 in0.0 mm
04:00 AM 66.4°F19.1°C 63.7°F17.6°C 91% 3.5 mph SE5.6 kmh SE 9.2 mph14.8 kmh 29.57 in1001.4 mb - 0.00 in0.0 mm 0.00 in0.0 mm
03:55 AM 66.4°F19.1°C 63.7°F17.6°C 91% 3.5 mph SSW5.6 kmh SSW 8.1 mph13.0 kmh 29.56 in1001.0 mb - 0.00 in0.0 mm 0.00 in0.0 mm
03:50 AM 66.4°F19.1°C 63.7°F17.6°C 91% 2.3 mph N3.7 kmh N 5.8 mph9.3 kmh 29.56 in1001.0 mb - 0.00 in0.0 mm 0.00 in0.0 mm
03:45 AM 66.4°F19.1°C 63.7°F17.6°C 91% 2.3 mph SSE3.7 kmh SSE 4.6 mph7.4 kmh 29.56 in1001.0 mb - 0.00 in0.0 mm 0.00 in0.0 mm
03:40 AM 66.4°F19.1°C 63.7°F17.6°C 91% 2.3 mph NE3.7 kmh NE 3.5 mph5.6 kmh 29.56 in1001.0 mb - 0.00 in0.0 mm 0.00 in0.0 mm
03:35 AM 66.6°F19.2°C 63.9°F17.7°C 91% 2.3 mph S3.7 kmh S 3.5 mph5.6 kmh 29.56 in1001.0 mb - 0.00 in0.0 mm 0.00 in0.0 mm
03:30 AM 66.6°F19.2°C 63.9°F17.7°C 91% 2.3 mph SE3.7 kmh SE 3.5 mph5.6 kmh 29.56 in1001.0 mb - 0.00 in0.0 mm 0.00 in0.0 mm
03:25 AM 66.6°F19.2°C 63.5°F17.5°C 90% 3.5 mph S5.6 kmh S 3.5 mph5.6 kmh 29.56 in1001.0 mb - 0.00 in0.0 mm 0.00 in0.0 mm
03:20 AM 66.9°F19.4°C 63.9°F17.7°C 90% 3.5 mph WSW5.6 kmh WSW 4.6 mph7.4 kmh 29.56 in1001.0 mb - 0.00 in0.0 mm 0.00 in0.0 mm
03:15 AM 66.9°F19.4°C 63.9°F17.7°C 90% 3.5 mph ESE5.6 kmh ESE 5.8 mph9.3 kmh 29.57 in1001.4 mb - 0.00 in0.0 mm 0.00 in0.0 mm
03:10 AM 66.9°F19.4°C 63.9°F17.7°C 90% 3.5 mph SSE5.6 kmh SSE 3.5 mph5.6 kmh 29.57 in1001.4 mb - 0.00 in0.0 mm 0.00 in0.0 mm
03:00 AM 67.1°F19.5°C 64.1°F17.8°C 90% 4.6 mph SE7.4 kmh SE 9.2 mph14.8 kmh 29.57 in1001.4 mb - 0.00 in0.0 mm 0.00 in0.0 mm
02:55 AM 67.1°F19.5°C 64.1°F17.8°C 90% 4.6 mph SSE7.4 kmh SSE 8.1 mph13.0 kmh 29.56 in1001.0 mb - 0.00 in0.0 mm 0.00 in0.0 mm
02:50 AM 67.1°F19.5°C 64.1°F17.8°C 90% 4.6 mph SSE7.4 kmh SSE 6.9 mph11.1 kmh 29.56 in1001.0 mb - 0.00 in0.0 mm 0.00 in0.0 mm
02:45 AM 67.1°F19.5°C 64.4°F18.0°C 91% 5.8 mph SSW9.3 kmh SSW 5.8 mph9.3 kmh 29.56 in1001.0 mb - 0.00 in0.0 mm 0.00 in0.0 mm
02:40 AM 66.9°F19.4°C 64.2°F17.9°C 91% 4.6 mph S7.4 kmh S 10.4 mph16.7 kmh 29.56 in1001.0 mb - 0.00 in0.0 mm 0.00 in0.0 mm
02:35 AM 66.6°F19.2°C 63.9°F17.7°C 91% 4.6 mph SE7.4 kmh SE 4.6 mph7.4 kmh 29.56 in1001.0 mb - 0.00 in0.0 mm 0.00 in0.0 mm
02:30 AM 66.6°F19.2°C 63.9°F17.7°C 91% 4.6 mph S7.4 kmh S 6.9 mph11.1 kmh 29.56 in1001.0 mb - 0.00 in0.0 mm 0.00 in0.0 mm
02:25 AM 66.4°F19.1°C 63.7°F17.6°C 91% 3.5 mph S5.6 kmh S 3.5 mph5.6 kmh 29.56 in1001.0 mb - 0.00 in0.0 mm 0.00 in0.0 mm
02:20 AM 66.4°F19.1°C 63.7°F17.6°C 91% 3.5 mph S5.6 kmh S 6.9 mph11.1 kmh 29.56 in1001.0 mb - 0.00 in0.0 mm 0.00 in0.0 mm
02:15 AM 66.0°F18.9°C 63.3°F17.4°C 91% 3.5 mph S5.6 kmh S 6.9 mph11.1 kmh 29.56 in1001.0 mb - 0.00 in0.0 mm 0.00 in0.0 mm
02:10 AM 65.8°F18.8°C 63.1°F17.3°C 91% 3.5 mph S5.6 kmh S 4.6 mph7.4 kmh 29.55 in1000.7 mb - 0.00 in0.0 mm 0.00 in0.0 mm
02:00 AM 65.8°F18.8°C 63.1°F17.3°C 91% 4.6 mph ESE7.4 kmh ESE 5.8 mph9.3 kmh 29.54 in1000.3 mb - 0.00 in0.0 mm 0.00 in0.0 mm
01:55 AM 66.0°F18.9°C 63.3°F17.4°C 91% 2.3 mph E3.7 kmh E 6.9 mph11.1 kmh 29.57 in1001.4 mb - 0.00 in0.0 mm 0.00 in0.0 mm
01:50 AM 66.0°F18.9°C 63.3°F17.4°C 91% 3.5 mph E5.6 kmh E 3.5 mph5.6 kmh 29.57 in1001.4 mb - 0.00 in0.0 mm 0.00 in0.0 mm
01:45 AM 66.0°F18.9°C 63.3°F17.4°C 91% 3.5 mph SSE5.6 kmh SSE 4.6 mph7.4 kmh 29.58 in1001.7 mb - 0.00 in0.0 mm 0.00 in0.0 mm
01:40 AM 66.0°F18.9°C 63.3°F17.4°C 91% 3.5 mph S5.6 kmh S 5.8 mph9.3 kmh 29.59 in1002.0 mb - 0.00 in0.0 mm 0.00 in0.0 mm
01:35 AM 66.0°F18.9°C 63.3°F17.4°C 91% 3.5 mph S5.6 kmh S 4.6 mph7.4 kmh 29.58 in1001.7 mb - 0.00 in0.0 mm 0.00 in0.0 mm
01:30 AM 66.0°F18.9°C 63.3°F17.4°C 91% 2.3 mph ESE3.7 kmh ESE 3.5 mph5.6 kmh 29.57 in1001.4 mb - 0.00 in0.0 mm 0.00 in0.0 mm
01:25 AM 66.0°F18.9°C 63.3°F17.4°C 91% 3.5 mph SE5.6 kmh SE 4.6 mph7.4 kmh 29.57 in1001.4 mb - 0.00 in0.0 mm 0.00 in0.0 mm
01:20 AM 66.0°F18.9°C 63.3°F17.4°C 91% 3.5 mph SSE5.6 kmh SSE 4.6 mph7.4 kmh 29.57 in1001.4 mb - 0.00 in0.0 mm 0.00 in0.0 mm
01:15 AM 65.8°F18.8°C 63.1°F17.3°C 91% 3.5 mph SSE5.6 kmh SSE 4.6 mph7.4 kmh 29.57 in1001.4 mb - 0.00 in0.0 mm 0.00 in0.0 mm
01:10 AM 65.8°F18.8°C 63.1°F17.3°C 91% 2.3 mph SSE3.7 kmh SSE 4.6 mph7.4 kmh 29.57 in1001.4 mb - 0.00 in0.0 mm 0.00 in0.0 mm
01:00 AM 65.8°F18.8°C 63.1°F17.3°C 91% 3.5 mph S5.6 kmh S 9.2 mph14.8 kmh 29.57 in1001.4 mb - 0.00 in0.0 mm 0.00 in0.0 mm
12:55 AM 65.7°F18.7°C 63.0°F17.2°C 91% 3.5 mph S5.6 kmh S 4.6 mph7.4 kmh 29.58 in1001.7 mb - 0.00 in0.0 mm 0.00 in0.0 mm
12:50 AM 65.7°F18.7°C 63.0°F17.2°C 91% 3.5 mph S5.6 kmh S 9.2 mph14.8 kmh 29.58 in1001.7 mb - 0.00 in0.0 mm 0.00 in0.0 mm
12:45 AM 65.7°F18.7°C 63.0°F17.2°C 91% 2.3 mph SW3.7 kmh SW 6.9 mph11.1 kmh 29.58 in1001.7 mb - 0.00 in0.0 mm 0.00 in0.0 mm
12:40 AM 65.7°F18.7°C 63.0°F17.2°C 91% 3.5 mph S5.6 kmh S 4.6 mph7.4 kmh 29.58 in1001.7 mb - 0.00 in0.0 mm 0.00 in0.0 mm
12:35 AM 65.7°F18.7°C 62.6°F17.0°C 90% 3.5 mph SSE5.6 kmh SSE 4.6 mph7.4 kmh 29.58 in1001.7 mb - 0.00 in0.0 mm 0.00 in0.0 mm
12:30 AM 65.7°F18.7°C 62.6°F17.0°C 90% 2.3 mph SSE3.7 kmh SSE 5.8 mph9.3 kmh 29.58 in1001.7 mb - 0.00 in0.0 mm 0.00 in0.0 mm
12:25 AM 65.8°F18.8°C 62.2°F16.8°C 88% 3.5 mph SSW5.6 kmh SSW 3.5 mph5.6 kmh 29.58 in1001.7 mb - 0.00 in0.0 mm 0.00 in0.0 mm
12:20 AM 65.8°F18.8°C 62.2°F16.8°C 88% 3.5 mph SSW5.6 kmh SSW 8.1 mph13.0 kmh 29.58 in1001.7 mb - 0.00 in0.0 mm 0.00 in0.0 mm
12:15 AM 65.7°F18.7°C 62.0°F16.7°C 88% 3.5 mph SSE5.6 kmh SSE 2.3 mph3.7 kmh 29.59 in1002.0 mb - 0.00 in0.0 mm 0.00 in0.0 mm
12:10 AM 65.7°F18.7°C 62.0°F16.7°C 88% 3.5 mph SSW5.6 kmh SSW 3.5 mph5.6 kmh 29.59 in1002.0 mb - 0.00 in0.0 mm 0.00 in0.0 mm
12:00 AM 65.7°F18.7°C 62.0°F16.7°C 88% 3.5 mph S5.6 kmh S 4.6 mph7.4 kmh 29.59 in1002.0 mb - 0.00 in0.0 mm 0.00 in0.0 mm